Time;durP1;ratioP1;P1;durP2;ratioP2;P2;SDS_P1;SDS_P2;PMS_P1;PMS_P2;Temp;Humidity;BMP_temperature;BMP_pressure;BME280_temperature;BME280_humidity;BME280_pressure;Samples;Min_cycle;Max_cycle;Signal;HPM_P1;HPM_P2
2021/10/28 00:13:47;;;;;;;36.60;24.33;;;5.80;99.90;;;;;;4951163;29;20284;-51
2021/10/28 00:16:22;;;;;;;33.90;24.83;;;5.80;99.90;;;;;;4948902;29;20277;-48
2021/10/28 00:18:50;;;;;;;39.13;24.63;;;5.70;99.90;;;;;;4952160;29;20188;-52
2021/10/28 00:21:16;;;;;;;40.75;24.70;;;5.70;99.90;;;;;;4952093;29;20194;-54
2021/10/28 00:23:46;;;;;;;36.58;24.63;;;5.70;99.90;;;;;;4952403;29;20224;-51
2021/10/28 00:26:13;;;;;;;39.00;24.27;;;5.60;99.90;;;;;;4951568;29;20220;-53
2021/10/28 00:28:40;;;;;;;40.38;23.13;;;5.60;99.90;;;;;;4952812;29;21065;-49
2021/10/28 00:31:06;;;;;;;34.05;23.65;;;5.50;99.90;;;;;;4952435;29;21080;-52
2021/10/28 00:33:33;;;;;;;39.63;23.77;;;5.50;99.90;;;;;;4952310;29;21162;-50
2021/10/28 00:36:01;;;;;;;33.22;22.50;;;5.50;99.90;;;;;;4951642;28;20185;-50
2021/10/28 00:38:27;;;;;;;30.83;22.33;;;5.50;99.90;;;;;;4951648;29;20889;-52
2021/10/28 00:40:53;;;;;;;32.50;21.90;;;5.50;99.90;;;;;;4950695;29;20749;-50
2021/10/28 00:43:19;;;;;;;38.30;22.70;;;5.40;99.90;;;;;;4944997;29;20293;-49
2021/10/28 00:45:51;;;;;;;34.45;22.42;;;5.40;99.90;;;;;;4951582;28;20509;-50
2021/10/28 00:48:18;;;;;;;34.75;23.05;;;5.40;99.90;;;;;;4934628;29;20190;-49
2021/10/28 00:50:44;;;;;;;33.35;21.30;;;5.30;99.90;;;;;;4951207;29;20190;-49
2021/10/28 00:53:10;;;;;;;33.10;22.15;;;5.30;99.90;;;;;;4951088;29;20217;-50
2021/10/28 00:55:36;;;;;;;33.33;21.60;;;5.30;99.90;;;;;;4950845;29;20212;-51
2021/10/28 00:58:03;;;;;;;38.30;23.92;;;5.20;99.90;;;;;;4951964;29;20552;-51
2021/10/28 01:00:28;;;;;;;32.20;21.65;;;5.20;99.90;;;;;;4950831;29;20539;-48
2021/10/28 01:02:54;;;;;;;31.03;21.77;;;5.20;99.90;;;;;;4951596;29;20202;-52
2021/10/28 01:05:20;;;;;;;34.50;22.20;;;5.20;99.90;;;;;;4950658;29;20273;-49
2021/10/28 01:07:45;;;;;;;36.07;22.67;;;5.20;99.90;;;;;;4949747;29;20198;-48
2021/10/28 01:10:11;;;;;;;37.53;23.60;;;5.10;99.90;;;;;;4951382;29;20182;-47
2021/10/28 01:12:37;;;;;;;37.75;23.55;;;5.10;99.90;;;;;;4931948;29;20182;-48
2021/10/28 01:15:12;;;;;;;34.33;21.03;;;5.10;99.90;;;;;;4951677;29;20277;-51
2021/10/28 01:17:37;;;;;;;31.05;21.27;;;5.00;99.90;;;;;;4928776;29;20200;-49
2021/10/28 01:20:05;;;;;;;33.63;22.87;;;5.00;99.90;;;;;;4934171;29;20193;-49
2021/10/28 01:22:30;;;;;;;36.35;23.00;;;5.00;99.90;;;;;;4949305;29;20481;-52
2021/10/28 01:24:56;;;;;;;39.60;24.73;;;5.00;99.90;;;;;;4951428;29;20188;-49
2021/10/28 01:27:21;;;;;;;37.03;23.07;;;5.00;99.90;;;;;;4942091;29;20250;-48
2021/10/28 01:29:47;;;;;;;37.70;23.13;;;5.00;99.90;;;;;;4951616;29;20645;-49
2021/10/28 01:32:12;;;;;;;36.87;23.00;;;5.00;99.90;;;;;;4951406;29;20208;-47
2021/10/28 01:34:45;;;;;;;37.27;23.77;;;5.00;99.90;;;;;;4944262;29;20230;-48
2021/10/28 01:37:13;;;;;;;34.53;22.80;;;5.00;99.90;;;;;;4946002;29;20185;-50
2021/10/28 01:39:40;;;;;;;32.67;22.65;;;4.90;99.90;;;;;;4949883;29;20248;-48
2021/10/28 01:42:09;;;;;;;35.90;23.30;;;4.90;99.90;;;;;;4950613;29;20206;-48
2021/10/28 01:44:35;;;;;;;35.17;23.10;;;4.90;99.90;;;;;;4950669;29;20189;-49
2021/10/28 01:47:01;;;;;;;35.03;21.07;;;4.90;99.90;;;;;;4949652;28;20185;-49
2021/10/28 01:49:28;;;;;;;36.30;22.50;;;4.90;99.90;;;;;;4945978;29;20469;-50
2021/10/28 01:51:55;;;;;;;37.08;24.23;;;4.90;99.90;;;;;;4946227;29;20181;-47
2021/10/28 01:54:25;;;;;;;33.28;21.20;;;4.80;99.90;;;;;;4939648;29;20185;-50
2021/10/28 01:56:52;;;;;;;32.78;21.17;;;4.80;99.90;;;;;;4944802;29;20999;-49
2021/10/28 01:59:19;;;;;;;32.53;21.48;;;4.70;99.90;;;;;;4950188;29;21060;-50
2021/10/28 02:01:45;;;;;;;33.83;21.27;;;4.70;99.90;;;;;;4950426;29;20182;-50
2021/10/28 02:04:12;;;;;;;35.85;21.52;;;4.70;99.90;;;;;;4950911;29;20592;-51
2021/10/28 02:06:38;;;;;;;34.40;22.10;;;4.70;99.90;;;;;;4950166;29;20565;-47
2021/10/28 02:09:04;;;;;;;42.33;22.63;;;4.60;99.90;;;;;;4949451;29;20237;-50
2021/10/28 02:11:30;;;;;;;35.80;20.23;;;4.60;99.90;;;;;;4947020;29;20189;-50
2021/10/28 02:13:58;;;;;;;35.77;21.97;;;4.60;99.90;;;;;;4948157;28;20445;-51
2021/10/28 02:16:34;;;;;;;35.95;21.00;;;4.60;99.90;;;;;;4949546;29;20594;-49
2021/10/28 02:19:00;;;;;;;36.13;22.25;;;4.50;99.90;;;;;;4949187;29;20196;-50
2021/10/28 02:21:27;;;;;;;37.30;22.15;;;4.50;99.90;;;;;;4950816;29;20190;-54
2021/10/28 02:23:54;;;;;;;39.63;23.92;;;4.50;99.90;;;;;;4943923;29;20213;-49
2021/10/28 02:26:21;;;;;;;44.67;24.52;;;4.60;99.90;;;;;;4950082;29;20641;-52
2021/10/28 02:28:47;;;;;;;38.28;24.05;;;4.60;99.90;;;;;;4948453;29;20268;-47
2021/10/28 02:31:13;;;;;;;41.07;23.93;;;4.60;99.90;;;;;;4950300;29;20272;-52
2021/10/28 02:33:39;;;;;;;41.85;23.25;;;4.60;99.90;;;;;;4947510;29;20991;-50
2021/10/28 02:36:04;;;;;;;36.90;22.77;;;4.60;99.90;;;;;;4951254;29;20221;-50
2021/10/28 02:38:30;;;;;;;40.40;25.03;;;4.60;99.90;;;;;;4948073;29;20189;-50
2021/10/28 02:40:56;;;;;;;40.60;23.47;;;4.60;99.90;;;;;;4948797;29;20269;-48
2021/10/28 02:43:21;;;;;;;38.40;24.40;;;4.50;99.90;;;;;;4950750;29;20204;-51
2021/10/28 02:45:47;;;;;;;46.87;25.67;;;4.50;99.90;;;;;;4947161;29;20193;-47
2021/10/28 02:48:12;;;;;;;41.63;24.37;;;4.50;99.90;;;;;;4949771;29;20213;-50
2021/10/28 02:50:38;;;;;;;41.83;25.10;;;4.50;99.90;;;;;;4932566;29;20308;-47
2021/10/28 02:53:03;;;;;;;37.23;24.00;;;4.50;99.90;;;;;;4945318;29;20189;-51
2021/10/28 02:55:29;;;;;;;40.10;24.10;;;4.50;99.90;;;;;;4949062;29;20182;-51
2021/10/28 02:57:54;;;;;;;37.93;22.93;;;4.50;99.90;;;;;;4951466;28;20190;-52
2021/10/28 03:00:20;;;;;;;37.70;23.47;;;4.50;99.90;;;;;;4951304;29;20625;-50
2021/10/28 03:02:46;;;;;;;41.17;24.93;;;4.40;99.90;;;;;;4953737;29;20202;-50
2021/10/28 03:05:11;;;;;;;47.93;27.10;;;4.40;99.90;;;;;;4953021;29;20268;-47
2021/10/28 03:07:38;;;;;;;39.53;23.90;;;4.40;99.90;;;;;;4953165;29;20182;-50
2021/10/28 03:10:07;;;;;;;43.40;25.65;;;4.40;99.90;;;;;;4950499;29;20706;-50
2021/10/28 03:12:34;;;;;;;48.90;27.05;;;4.50;99.90;;;;;;4933225;29;20186;-52
2021/10/28 03:15:03;;;;;;;42.40;25.38;;;4.50;99.90;;;;;;4934654;29;20194;-47
2021/10/28 03:25:42;;;;;;;39.25;25.20;;;4.60;99.90;;;;;;4943963;29;20532;-50
2021/10/28 03:28:16;;;;;;;42.80;23.55;;;4.50;99.90;;;;;;4946455;29;20175;-50
2021/10/28 03:30:42;;;;;;;43.92;25.52;;;4.50;99.90;;;;;;4947147;29;20531;-50
2021/10/28 03:33:11;;;;;;;41.53;26.40;;;4.40;99.90;;;;;;4946191;29;20261;-52
2021/10/28 03:35:37;;;;;;;41.22;24.98;;;4.40;99.90;;;;;;4951563;29;20975;-48
2021/10/28 03:48:53;;;;;;;44.80;27.27;;;4.30;99.90;;;;;;4952152;29;20609;-52
2021/10/28 03:51:56;;;;;;;46.97;26.90;;;4.30;99.90;;;;;;4952576;29;20268;-50
2021/10/28 03:57:41;;;;;;;42.72;24.85;;;4.30;99.90;;;;;;4946198;29;20178;-51
2021/10/28 04:18:18;;;;;;;40.53;24.00;;;4.10;99.90;;;;;;4941568;29;20244;-47
2021/10/28 04:21:10;;;;;;;39.05;23.77;;;4.10;99.90;;;;;;4943551;29;20196;-53
2021/10/28 04:29:04;;;;;;;36.28;21.70;;;4.00;99.90;;;;;;4944033;29;20281;-52
2021/10/28 04:31:36;;;;;;;41.22;23.00;;;3.90;99.90;;;;;;4942357;29;20180;-47
2021/10/28 04:34:06;;;;;;;38.33;23.55;;;3.90;99.90;;;;;;4942448;29;20244;-52
2021/10/28 04:36:32;;;;;;;45.95;27.08;;;3.90;99.90;;;;;;4937702;29;20197;-51
2021/10/28 04:38:59;;;;;;;41.38;25.25;;;3.90;99.90;;;;;;4940014;29;20205;-52
2021/10/28 04:41:26;;;;;;;128.90;68.57;;;3.90;99.90;;;;;;4943612;29;20249;-54
2021/10/28 04:43:52;;;;;;;81.43;55.88;;;3.90;99.90;;;;;;4950388;29;20220;-51
2021/10/28 04:46:18;;;;;;;59.27;36.33;;;3.90;99.90;;;;;;4949223;29;20201;-48
2021/10/28 04:48:44;;;;;;;48.70;29.65;;;3.90;99.90;;;;;;4950017;29;20425;-51
2021/10/28 04:51:10;;;;;;;48.50;28.57;;;3.90;99.90;;;;;;4950636;29;20185;-47
2021/10/28 04:53:35;;;;;;;42.73;25.90;;;3.80;99.90;;;;;;4951725;29;20221;-49
2021/10/28 04:56:01;;;;;;;45.67;25.87;;;3.80;99.90;;;;;;4950379;29;20177;-53
2021/10/28 04:58:27;;;;;;;40.73;24.97;;;3.80;99.90;;;;;;4950782;29;20186;-49
2021/10/28 05:00:52;;;;;;;41.40;24.60;;;3.80;99.90;;;;;;4948067;29;20194;-50
2021/10/28 05:03:18;;;;;;;44.10;25.37;;;3.80;99.90;;;;;;4932680;29;20220;-55
2021/10/28 05:05:44;;;;;;;47.10;25.27;;;3.80;99.90;;;;;;4951054;29;20185;-58
2021/10/28 05:08:10;;;;;;;42.50;26.13;;;3.80;99.90;;;;;;4951214;29;20421;-59
2021/10/28 05:10:35;;;;;;;41.37;25.17;;;3.80;99.90;;;;;;4946454;29;20189;-59
2021/10/28 05:13:01;;;;;;;45.97;25.67;;;3.80;99.90;;;;;;4951996;29;20264;-60
2021/10/28 05:15:27;;;;;;;42.77;25.27;;;3.80;99.90;;;;;;4934781;29;20246;-59
2021/10/28 05:17:52;;;;;;;39.53;23.67;;;3.90;99.90;;;;;;4950546;29;20198;-60
2021/10/28 05:20:18;;;;;;;42.40;24.30;;;3.90;99.90;;;;;;4947559;29;20445;-60
2021/10/28 05:22:44;;;;;;;41.40;24.27;;;3.90;99.90;;;;;;4949405;28;20213;-60
2021/10/28 05:25:10;;;;;;;42.70;25.42;;;3.90;99.90;;;;;;4941504;29;20196;-58
2021/10/28 05:27:35;;;;;;;45.13;27.00;;;3.80;99.90;;;;;;4951706;29;20174;-60
2021/10/28 05:30:03;;;;;;;38.00;24.80;;;3.80;99.90;;;;;;4951643;29;20205;-59
2021/10/28 05:32:29;;;;;;;39.05;24.80;;;3.80;99.90;;;;;;4951598;29;20926;-60
2021/10/28 05:34:59;;;;;;;40.00;22.93;;;3.80;99.90;;;;;;4942078;29;20261;-59
2021/10/28 05:37:27;;;;;;;39.72;23.08;;;3.80;99.90;;;;;;4951404;29;20189;-57
2021/10/28 05:39:52;;;;;;;44.67;23.40;;;3.70;99.90;;;;;;4947834;29;20185;-60
2021/10/28 05:42:18;;;;;;;44.40;26.20;;;3.70;99.90;;;;;;4950821;29;20216;-60
2021/10/28 05:44:43;;;;;;;45.50;25.30;;;3.70;99.90;;;;;;4951148;29;20201;-59
2021/10/28 05:47:09;;;;;;;44.03;25.30;;;3.70;99.90;;;;;;4950805;29;20196;-59
2021/10/28 05:49:34;;;;;;;39.73;24.83;;;3.70;99.90;;;;;;4951257;29;20278;-60
2021/10/28 05:52:00;;;;;;;45.60;24.10;;;3.70;99.90;;;;;;4949282;29;20259;-60
2021/10/28 05:54:26;;;;;;;40.92;26.10;;;3.70;99.90;;;;;;4951207;29;20200;-60
2021/10/28 05:56:52;;;;;;;43.33;26.07;;;3.80;99.90;;;;;;4951184;29;20189;-59
2021/10/28 05:59:18;;;;;;;47.77;27.33;;;3.80;99.90;;;;;;4950536;29;20169;-59
2021/10/28 06:01:43;;;;;;;41.67;25.35;;;3.80;99.90;;;;;;4950931;29;20522;-59
2021/10/28 06:04:09;;;;;;;47.90;27.10;;;3.80;99.90;;;;;;4951022;29;20205;-59
2021/10/28 06:06:35;;;;;;;45.05;26.50;;;3.80;99.90;;;;;;4951234;29;20282;-59
2021/10/28 06:09:00;;;;;;;42.10;26.27;;;3.90;99.90;;;;;;4950413;29;20177;-60
2021/10/28 06:11:26;;;;;;;43.43;25.37;;;3.90;99.90;;;;;;4950772;29;20181;-58
2021/10/28 06:13:53;;;;;;;50.10;28.57;;;3.90;99.90;;;;;;4951057;29;20256;-49
2021/10/28 06:16:19;;;;;;;51.15;28.60;;;3.90;99.90;;;;;;4942948;29;20197;-61
2021/10/28 06:18:49;;;;;;;45.47;26.87;;;3.90;99.90;;;;;;4949762;29;20870;-60
2021/10/28 06:21:16;;;;;;;44.58;26.35;;;4.00;99.90;;;;;;4950492;29;20196;-60
2021/10/28 06:23:42;;;;;;;42.90;24.80;;;4.00;99.90;;;;;;4951167;29;20196;-48
2021/10/28 06:26:09;;;;;;;40.73;23.97;;;4.00;99.90;;;;;;4946343;29;20776;-59
2021/10/28 06:28:35;;;;;;;41.03;25.30;;;4.00;99.90;;;;;;4950850;29;20174;-60
2021/10/28 06:31:00;;;;;;;41.67;26.20;;;4.10;99.90;;;;;;4950794;29;20196;-60
2021/10/28 06:33:29;;;;;;;43.13;26.27;;;4.20;99.90;;;;;;4951692;28;20700;-59
2021/10/28 06:35:56;;;;;;;42.30;25.73;;;4.20;99.90;;;;;;4953029;29;20909;-60
2021/10/28 06:38:22;;;;;;;42.50;25.55;;;4.20;99.90;;;;;;4953856;29;20656;-60
2021/10/28 06:40:47;;;;;;;44.37;26.57;;;4.20;99.90;;;;;;4943199;29;20181;-60
2021/10/28 06:43:13;;;;;;;41.97;24.87;;;4.30;99.90;;;;;;4954202;29;20208;-53
2021/10/28 06:45:39;;;;;;;42.57;27.10;;;4.30;99.90;;;;;;4953250;29;20886;-60
2021/10/28 06:48:06;;;;;;;46.43;28.50;;;4.40;99.90;;;;;;4954257;29;20190;-58
2021/10/28 06:50:41;;;;;;;48.25;28.17;;;4.40;99.90;;;;;;4943403;29;20417;-59
2021/10/28 07:03:33;;;;;;;45.42;27.15;;;4.70;99.90;;;;;;4953930;29;20819;-60
2021/10/28 07:06:13;;;;;;;43.77;26.50;;;4.80;99.90;;;;;;4952493;29;20178;-60
2021/10/28 07:08:42;;;;;;;46.55;27.63;;;4.80;99.90;;;;;;4953936;29;20593;-60
2021/10/28 07:11:12;;;;;;;49.03;27.08;;;4.90;99.90;;;;;;4953094;29;20527;-59
2021/10/28 07:13:41;;;;;;;46.92;27.80;;;5.00;99.90;;;;;;4949753;29;20641;-60
2021/10/28 07:18:57;;;;;;;44.78;26.85;;;5.20;99.90;;;;;;4951884;29;20162;-58
2021/10/28 07:24:26;;;;;;;42.70;26.67;;;5.40;99.90;;;;;;4947441;28;20194;-59
2021/10/28 07:27:23;;;;;;;43.88;27.08;;;5.60;99.90;;;;;;4952372;29;20264;-60
2021/10/28 07:32:36;;;;;;;46.08;28.75;;;5.90;99.90;;;;;;4953060;29;20193;-60
2021/10/28 08:18:56;;;;;;;20.30;17.03;;;15.20;99.90;;;;;;4913322;29;20866;-59
2021/10/28 08:21:29;;;;;;;18.50;16.50;;;15.80;99.90;;;;;;4913867;29;20989;-59
2021/10/28 08:29:21;;;;;;;17.93;16.23;;;15.50;99.90;;;;;;4906843;29;20765;-59
2021/10/28 08:31:54;;;;;;;19.87;17.77;;;16.00;99.90;;;;;;4913542;29;20578;-60
2021/10/28 08:34:29;;;;;;;20.47;18.30;;;16.50;99.90;;;;;;4942273;29;20964;-60
2021/10/28 08:36:57;;;;;;;18.27;16.50;;;16.70;99.40;;;;;;4931190;29;20437;-60
2021/10/28 08:39:23;;;;;;;18.90;17.00;;;17.00;98.20;;;;;;4936501;29;20416;-60
2021/10/28 08:41:49;;;;;;;18.53;16.70;;;17.30;98.00;;;;;;4933044;29;20494;-60
2021/10/28 08:44:19;;;;;;;19.90;17.80;;;17.70;95.60;;;;;;4943498;29;20553;-58
2021/10/28 08:46:48;;;;;;;18.80;16.80;;;17.80;95.20;;;;;;4951617;29;20400;-61
2021/10/28 08:49:22;;;;;;;19.67;17.67;;;17.70;94.50;;;;;;4944956;28;20432;-60
2021/10/28 08:57:17;;;;;;;20.00;18.10;;;17.90;94.50;;;;;;4945773;28;20439;-59
2021/10/28 09:24:45;;;;;;;20.53;18.43;;;18.80;87.00;;;;;;4941949;29;20499;-59
2021/10/28 09:27:14;;;;;;;19.47;17.47;;;19.10;85.50;;;;;;4947596;29;20410;-60
2021/10/28 09:51:07;;;;;;;20.90;19.00;;;20.50;73.70;;;;;;4950465;29;20904;-60
2021/10/28 09:59:46;;;;;;;19.37;17.57;;;21.40;71.70;;;;;;4949063;29;20856;-60
2021/10/28 10:02:18;;;;;;;20.50;18.70;;;21.70;70.00;;;;;;4938030;29;20471;-61
2021/10/28 10:04:46;;;;;;;20.70;18.80;;;21.60;69.70;;;;;;4928953;29;20939;-60
2021/10/28 10:07:17;;;;;;;20.50;18.50;;;22.10;69.60;;;;;;4949797;29;20452;-59
2021/10/28 10:09:43;;;;;;;20.10;18.20;;;21.90;66.80;;;;;;4945340;29;20974;-60
2021/10/28 10:12:09;;;;;;;19.47;17.67;;;22.10;67.10;;;;;;4945350;29;20436;-60
2021/10/28 10:14:37;;;;;;;20.73;18.97;;;22.40;64.10;;;;;;4950274;29;20427;-61
2021/10/28 10:17:07;;;;;;;19.10;17.60;;;22.70;64.90;;;;;;4950698;29;20422;-61
2021/10/28 10:19:35;;;;;;;18.90;17.20;;;23.20;62.70;;;;;;4949800;29;20520;-61
2021/10/28 10:22:16;;;;;;;20.10;18.27;;;23.00;60.20;;;;;;4949630;29;21258;-61
2021/10/28 10:30:11;;;;;;;18.70;17.10;;;23.40;58.50;;;;;;4945689;29;20445;-60
2021/10/28 11:22:27;;;;;;;12.40;11.40;;;25.00;47.80;;;;;;4928557;29;20440;-54
2021/10/28 11:33:37;;;;;;;13.10;12.00;;;23.60;49.40;;;;;;4949700;29;20496;-61
2021/10/28 12:20:58;;;;;;;14.10;13.00;;;21.00;49.70;;;;;;4947109;29;20457;-59
2021/10/28 13:04:28;;;;;;;17.90;16.30;;;20.30;52.00;;;;;;4937838;29;21007;-60
2021/10/28 13:35:09;;;;;;;19.20;17.53;;;20.50;51.10;;;;;;4947926;29;20476;-45
2021/10/28 13:53:01;;;;;;;18.53;16.60;;;19.80;53.70;;;;;;4949674;29;20439;-49
2021/10/28 13:58:40;;;;;;;21.17;19.07;;;19.90;53.50;;;;;;4950857;29;20477;-51
2021/10/28 14:15:33;;;;;;;22.53;20.17;;;19.50;55.80;;;;;;4949970;29;20428;-47
2021/10/28 14:18:29;;;;;;;21.17;19.03;;;19.70;55.20;;;;;;4936236;29;20444;-47
2021/10/28 15:28:40;;;;;;;28.50;23.17;;;14.10;90.80;;;;;;4941933;29;20448;-49
2021/10/28 15:39:35;;;;;;;29.50;24.20;;;13.40;94.80;;;;;;4942310;29;20643;-48
2021/10/28 16:22:29;;;;;;;31.10;23.93;;;12.20;99.90;;;;;;4946384;29;20480;-50
2021/10/28 16:24:55;;;;;;;35.30;24.57;;;12.20;99.90;;;;;;4949236;29;21104;-53
2021/10/28 16:27:21;;;;;;;31.10;25.50;;;12.10;99.90;;;;;;4931720;29;20426;-49
2021/10/28 16:29:46;;;;;;;31.40;25.47;;;12.00;99.90;;;;;;4943378;29;20258;-53
2021/10/28 16:32:16;;;;;;;33.40;25.03;;;12.00;99.90;;;;;;4946689;29;20201;-53
2021/10/28 16:34:42;;;;;;;33.70;25.10;;;11.80;99.90;;;;;;4943346;29;20256;-54
2021/10/28 16:37:07;;;;;;;30.27;24.83;;;11.70;99.90;;;;;;4946938;29;20434;-53
2021/10/28 16:39:33;;;;;;;33.27;26.30;;;11.70;99.90;;;;;;4950244;29;20865;-52
2021/10/28 16:42:00;;;;;;;32.73;24.07;;;11.70;99.90;;;;;;4947611;29;20640;-50
2021/10/28 16:44:26;;;;;;;35.10;26.73;;;11.70;99.90;;;;;;4951101;29;20811;-46
2021/10/28 16:46:53;;;;;;;33.53;24.93;;;11.60;99.90;;;;;;4950649;29;20421;-50
2021/10/28 16:49:20;;;;;;;35.17;26.27;;;11.60;99.90;;;;;;4946956;29;20433;-50
2021/10/28 16:51:46;;;;;;;35.30;27.03;;;11.50;99.90;;;;;;4950721;29;20409;-48
2021/10/28 16:54:16;;;;;;;31.40;25.27;;;11.40;99.90;;;;;;4950408;29;20942;-47
2021/10/28 16:56:41;;;;;;;31.93;25.07;;;11.30;99.90;;;;;;4950941;29;20177;-48
2021/10/28 16:59:07;;;;;;;31.87;25.43;;;11.20;99.90;;;;;;4951029;29;20487;-47
2021/10/28 17:01:32;;;;;;;34.00;26.80;;;11.10;99.90;;;;;;4950641;29;20178;-54
2021/10/28 17:03:58;;;;;;;32.30;24.90;;;11.00;99.90;;;;;;4945569;29;20285;-53
2021/10/28 17:06:23;;;;;;;38.83;26.53;;;11.00;99.90;;;;;;4950792;29;20668;-53
2021/10/28 17:08:54;;;;;;;36.00;27.70;;;10.80;99.90;;;;;;4950883;29;20261;-51
2021/10/28 17:11:21;;;;;;;33.57;25.97;;;10.70;99.90;;;;;;4950418;29;20173;-53
2021/10/28 17:13:47;;;;;;;33.20;25.27;;;10.60;99.90;;;;;;4944738;29;20464;-52
2021/10/28 17:16:12;;;;;;;37.47;27.17;;;10.40;99.90;;;;;;4950325;29;20429;-51
2021/10/28 17:18:38;;;;;;;33.80;27.33;;;10.30;99.90;;;;;;4950142;28;20433;-52
2021/10/28 17:21:05;;;;;;;37.00;29.67;;;10.20;99.90;;;;;;4949542;29;20296;-53
2021/10/28 17:23:35;;;;;;;37.63;29.53;;;10.10;99.90;;;;;;4947937;29;20201;-50
2021/10/28 17:26:03;;;;;;;37.93;29.70;;;10.00;99.90;;;;;;4950095;29;20437;-51
2021/10/28 17:28:34;;;;;;;41.23;31.03;;;9.90;99.90;;;;;;4950132;29;20763;-49
2021/10/28 17:31:03;;;;;;;40.00;30.40;;;9.80;99.90;;;;;;4924306;28;20444;-50
2021/10/28 17:33:28;;;;;;;42.53;31.60;;;9.80;99.90;;;;;;4944809;28;20475;-51
2021/10/28 17:35:55;;;;;;;44.40;31.50;;;9.70;99.90;;;;;;4949837;29;20468;-50
2021/10/28 17:38:21;;;;;;;42.23;31.50;;;9.60;99.90;;;;;;4949169;28;20182;-50
2021/10/28 17:40:48;;;;;;;43.10;31.20;;;9.60;99.90;;;;;;4949443;29;20440;-50
2021/10/28 17:43:15;;;;;;;43.10;30.90;;;9.50;99.90;;;;;;4948534;29;20233;-50
2021/10/28 17:45:41;;;;;;;38.57;30.10;;;9.40;99.90;;;;;;4949772;28;20876;-52
2021/10/28 17:48:08;;;;;;;44.90;30.47;;;9.40;99.90;;;;;;4949396;29;20429;-53
2021/10/28 17:50:35;;;;;;;37.17;28.90;;;9.40;99.90;;;;;;4953272;28;20442;-52
2021/10/28 17:53:01;;;;;;;37.00;28.77;;;9.40;99.90;;;;;;4949960;29;20434;-51
2021/10/28 17:55:27;;;;;;;41.10;28.27;;;9.30;99.90;;;;;;4931192;29;20448;-51
2021/10/28 17:57:52;;;;;;;42.80;30.70;;;9.30;99.90;;;;;;4947829;28;20441;-54
2021/10/28 18:00:20;;;;;;;40.47;29.17;;;9.30;99.90;;;;;;4950026;29;20182;-51
2021/10/28 18:02:46;;;;;;;45.00;29.10;;;9.30;99.90;;;;;;4947022;28;20209;-51
2021/10/28 18:05:12;;;;;;;43.87;29.53;;;9.20;99.90;;;;;;4949805;29;20954;-50
2021/10/28 18:07:38;;;;;;;41.23;28.83;;;9.30;99.90;;;;;;4950143;29;20188;-50
2021/10/28 18:10:05;;;;;;;41.27;28.80;;;9.30;99.90;;;;;;4949255;29;20417;-50
2021/10/28 18:12:34;;;;;;;33.70;27.97;;;9.30;99.90;;;;;;4945047;28;20430;-54
2021/10/28 18:15:00;;;;;;;36.43;26.00;;;9.40;99.90;;;;;;4935868;29;20786;-52
2021/10/28 18:17:27;;;;;;;33.73;25.07;;;9.40;99.90;;;;;;4934761;29;20426;-53
2021/10/28 18:19:52;;;;;;;39.63;27.00;;;9.60;99.90;;;;;;4933635;29;20525;-50
2021/10/28 18:22:18;;;;;;;38.47;26.03;;;9.70;99.90;;;;;;4934534;28;20851;-52
2021/10/28 18:24:44;;;;;;;36.60;27.57;;;9.70;99.90;;;;;;4933436;28;20849;-52
2021/10/28 18:27:10;;;;;;;34.27;25.83;;;9.80;99.90;;;;;;4936668;28;20198;-54
2021/10/28 18:29:37;;;;;;;34.57;27.27;;;9.90;99.90;;;;;;4936053;29;20422;-52
2021/10/28 18:32:07;;;;;;;33.77;26.47;;;10.00;99.90;;;;;;4937364;29;20421;-55
2021/10/28 18:34:33;;;;;;;33.27;25.63;;;10.10;99.90;;;;;;4939829;29;20558;-52
2021/10/28 18:36:58;;;;;;;36.40;27.23;;;10.20;99.90;;;;;;4937215;28;20452;-53
2021/10/28 18:39:24;;;;;;;33.63;25.60;;;10.20;99.90;;;;;;4936439;29;20433;-51
2021/10/28 18:41:51;;;;;;;35.23;25.37;;;10.30;99.90;;;;;;4952468;29;20742;-49
2021/10/28 18:44:17;;;;;;;34.37;23.67;;;10.30;99.90;;;;;;4953156;28;20205;-50
2021/10/28 18:46:43;;;;;;;36.40;26.43;;;10.30;99.90;;;;;;4951613;29;20429;-49
2021/10/28 18:49:09;;;;;;;33.93;25.40;;;10.30;99.90;;;;;;4948429;28;20432;-49
2021/10/28 18:51:36;;;;;;;35.73;25.70;;;10.30;99.90;;;;;;4952808;29;20178;-50
2021/10/28 18:54:03;;;;;;;32.10;24.70;;;10.30;99.90;;;;;;4949785;29;20444;-54
2021/10/28 18:56:30;;;;;;;31.40;25.43;;;10.30;99.90;;;;;;4951875;29;20441;-50
2021/10/28 18:58:56;;;;;;;34.23;26.10;;;10.30;99.90;;;;;;4935006;29;20778;-55
2021/10/28 19:01:22;;;;;;;36.87;28.30;;;10.30;99.90;;;;;;4951852;28;20439;-53
2021/10/28 19:03:51;;;;;;;33.70;25.07;;;10.30;99.90;;;;;;4950871;29;20479;-49
2021/10/28 19:06:17;;;;;;;35.20;26.23;;;10.30;99.90;;;;;;4952598;29;20429;-48
2021/10/28 19:08:43;;;;;;;35.03;27.13;;;10.30;99.90;;;;;;4953119;29;20467;-49
2021/10/28 19:11:11;;;;;;;35.03;24.97;;;10.40;99.90;;;;;;4950215;29;20417;-49
2021/10/28 19:13:39;;;;;;;36.40;26.37;;;10.30;99.90;;;;;;4954463;28;20515;-53
2021/10/28 19:16:06;;;;;;;36.03;26.30;;;10.30;99.90;;;;;;4951524;29;20424;-52
2021/10/28 19:18:32;;;;;;;38.63;27.63;;;10.30;99.90;;;;;;4952176;29;20768;-53
2021/10/28 19:20:58;;;;;;;36.90;26.10;;;10.30;99.90;;;;;;4953124;29;20428;-52
2021/10/28 19:23:24;;;;;;;35.07;25.03;;;10.30;99.90;;;;;;4952470;29;20217;-53
2021/10/28 19:25:49;;;;;;;37.40;25.50;;;10.30;99.90;;;;;;4952373;29;20425;-54
2021/10/28 19:28:16;;;;;;;38.63;27.53;;;10.20;99.90;;;;;;4951491;28;20437;-52
2021/10/28 19:30:52;;;;;;;40.33;25.70;;;10.20;99.90;;;;;;4950686;29;20276;-50
2021/10/28 19:33:22;;;;;;;33.30;24.90;;;10.20;99.90;;;;;;4948909;29;20480;-54
2021/10/28 19:35:53;;;;;;;35.60;25.93;;;10.20;99.90;;;;;;4951348;29;20532;-52
2021/10/28 19:41:14;;;;;;;37.60;26.03;;;10.20;99.90;;;;;;4945333;28;20470;-52
2021/10/28 19:46:25;;;;;;;37.00;25.70;;;10.30;99.90;;;;;;4951073;29;20440;-48
2021/10/28 19:48:52;;;;;;;32.90;24.70;;;10.20;99.90;;;;;;4948841;29;20504;-49
2021/10/28 19:51:18;;;;;;;36.23;25.13;;;10.30;99.90;;;;;;4952314;29;20532;-47
2021/10/28 19:53:46;;;;;;;33.37;24.70;;;10.30;99.90;;;;;;4951964;29;20812;-51
2021/10/28 19:56:14;;;;;;;33.40;24.70;;;10.30;99.90;;;;;;4948021;29;20445;-48
2021/10/28 19:58:54;;;;;;;30.03;24.33;;;10.30;99.90;;;;;;4952204;29;20433;-53
2021/10/28 20:04:09;;;;;;;31.90;23.87;;;10.30;99.90;;;;;;4949539;29;20576;-51
2021/10/28 20:06:49;;;;;;;32.03;24.00;;;10.30;99.90;;;;;;4952494;29;21174;-54
2021/10/28 20:20:15;;;;;;;31.53;23.57;;;10.30;99.90;;;;;;4952067;29;20444;-48
2021/10/28 20:22:44;;;;;;;32.73;24.30;;;10.30;99.90;;;;;;4951215;29;20443;-53
2021/10/28 20:25:13;;;;;;;30.20;24.30;;;10.20;99.90;;;;;;4952110;29;20495;-49
2021/10/28 20:27:40;;;;;;;27.93;23.80;;;10.20;99.90;;;;;;4952214;29;20457;-46
2021/10/28 20:30:07;;;;;;;28.30;23.60;;;10.20;99.90;;;;;;4951913;29;20436;-49
2021/10/28 20:32:32;;;;;;;33.50;23.40;;;10.20;99.90;;;;;;4951276;29;20429;-47
2021/10/28 20:35:13;;;;;;;27.63;22.83;;;10.20;99.90;;;;;;4950917;29;20833;-49
2021/10/28 20:37:39;;;;;;;31.00;24.27;;;10.20;99.90;;;;;;4940575;29;20453;-47
2021/10/28 20:40:07;;;;;;;32.07;23.90;;;10.20;99.90;;;;;;4951036;29;20432;-46
2021/10/28 20:42:37;;;;;;;32.33;24.80;;;10.20;99.90;;;;;;4951245;29;20927;-49
2021/10/28 20:45:11;;;;;;;35.20;24.20;;;10.20;99.90;;;;;;4951445;29;20831;-50
2021/10/28 20:47:41;;;;;;;28.70;22.83;;;10.20;99.90;;;;;;4951115;29;20779;-49
2021/10/28 20:50:10;;;;;;;29.20;22.77;;;10.10;99.90;;;;;;4951765;29;20750;-52
2021/10/28 20:52:37;;;;;;;32.13;24.10;;;10.10;99.90;;;;;;4951096;28;20422;-49
2021/10/28 20:55:03;;;;;;;30.80;24.40;;;10.10;99.90;;;;;;4951435;29;20938;-49
2021/10/28 20:57:28;;;;;;;28.40;21.60;;;10.00;99.90;;;;;;4951471;29;20429;-48
2021/10/28 20:59:54;;;;;;;28.37;23.20;;;10.00;99.90;;;;;;4951469;29;20428;-48
2021/10/28 21:02:19;;;;;;;29.90;24.17;;;9.90;99.90;;;;;;4951004;29;20182;-54
2021/10/28 21:04:45;;;;;;;30.70;22.40;;;9.90;99.90;;;;;;4951139;29;20209;-46
2021/10/28 21:07:11;;;;;;;29.33;23.30;;;9.80;99.90;;;;;;4951489;29;20174;-50
2021/10/28 21:09:36;;;;;;;27.97;22.13;;;9.80;99.90;;;;;;4950693;29;20189;-51
2021/10/28 21:12:02;;;;;;;28.30;23.73;;;9.80;99.90;;;;;;4942442;29;20243;-55
2021/10/28 21:14:27;;;;;;;27.00;23.20;;;9.90;99.90;;;;;;4951434;29;20286;-49
2021/10/28 21:16:53;;;;;;;28.80;22.80;;;9.80;99.90;;;;;;4941890;29;20225;-51
2021/10/28 21:19:19;;;;;;;28.27;23.57;;;9.90;99.90;;;;;;4951375;29;20216;-51
2021/10/28 21:21:50;;;;;;;27.87;23.33;;;9.90;99.90;;;;;;4950804;29;20181;-51
2021/10/28 21:24:17;;;;;;;29.23;23.40;;;9.90;99.90;;;;;;4950772;29;20220;-50
2021/10/28 21:26:43;;;;;;;29.40;22.80;;;9.90;99.90;;;;;;4950724;29;20425;-51